Time;durP1;ratioP1;P1;durP2;ratioP2;P2;SDS_P1;SDS_P2;PMS_P1;PMS_P2;Temp;Humidity;BMP_temperature;BMP_pressure;BME280_temperature;BME280_humidity;BME280_pressure;Samples;Min_cycle;Max_cycle;Signal;HPM_P1;HPM_P2
2022/05/11 00:02:00;;;;;;;5.82;5.15;;;;;;;19.23;55.24;98833.69;2619241;54;20026;-64
2022/05/11 00:04:30;;;;;;;5.38;4.88;;;;;;;19.16;55.16;98844.56;2618318;54;20057;-62
2022/05/11 00:06:59;;;;;;;6.05;4.95;;;;;;;19.13;55.24;98837.03;2619248;54;20030;-64
2022/05/11 00:09:31;;;;;;;5.80;5.30;;;;;;;19.06;55.50;98833.72;2620855;54;20542;-64
2022/05/11 00:12:01;;;;;;;5.53;5.03;;;;;;;19.01;55.81;98841.69;2621266;54;20026;-64
2022/05/11 00:14:31;;;;;;;5.20;4.70;;;;;;;18.99;55.40;98839.25;2620668;54;20101;-64
2022/05/11 00:17:00;;;;;;;5.40;4.72;;;;;;;18.99;55.39;98830.41;2620896;39;20449;-63
2022/05/11 00:19:30;;;;;;;8.77;5.15;;;;;;;18.98;55.35;98834.13;2620642;54;20047;-64
2022/05/11 00:22:00;;;;;;;5.45;4.95;;;;;;;18.93;55.58;98826.03;2620682;54;20089;-64
2022/05/11 00:24:32;;;;;;;5.60;4.80;;;;;;;18.95;55.92;98826.59;2621366;39;20426;-64
2022/05/11 00:27:02;;;;;;;5.55;5.03;;;;;;;18.98;55.59;98826.09;2620301;54;20026;-64
2022/05/11 00:29:34;;;;;;;5.80;5.22;;;;;;;18.95;55.50;98823.94;2620002;54;20041;-63
2022/05/11 00:32:03;;;;;;;5.25;4.75;;;;;;;18.89;55.79;98824.91;2620456;39;20434;-63
2022/05/11 00:34:33;;;;;;;6.25;5.15;;;;;;;18.85;55.68;98826.44;2619246;54;20037;-64
2022/05/11 00:37:03;;;;;;;6.10;4.93;;;;;;;18.80;56.32;98828.00;2620796;39;20524;-63
2022/05/11 00:39:35;;;;;;;5.15;4.70;;;;;;;18.76;56.43;98826.84;2620202;39;20544;-64
2022/05/11 00:42:07;;;;;;;6.07;5.18;;;;;;;18.70;56.47;98817.16;2619922;54;20035;-64
2022/05/11 00:44:36;;;;;;;10.43;5.45;;;;;;;18.66;56.26;98823.22;2619971;54;20037;-63
2022/05/11 00:47:10;;;;;;;6.57;4.97;;;;;;;18.68;56.54;98819.22;2620304;39;20442;-64
2022/05/11 00:49:43;;;;;;;5.32;4.93;;;;;;;18.70;56.75;98814.47;2619066;47;20058;-64
2022/05/11 00:52:17;;;;;;;6.70;5.40;;;;;;;18.67;56.31;98816.78;2620507;39;20443;-64
2022/05/11 00:54:56;;;;;;;5.63;4.85;;;;;;;18.65;56.50;98811.66;2620462;54;20034;-62
2022/05/11 00:57:30;;;;;;;6.00;5.50;;;;;;;18.61;56.96;98805.16;2621290;54;20125;-62
2022/05/11 01:00:01;;;;;;;7.00;5.45;;;;;;;18.54;56.94;98804.56;2620656;54;20526;-62
2022/05/11 01:02:31;;;;;;;6.03;5.53;;;;;;;18.52;56.86;98809.31;2622583;54;20026;-62
2022/05/11 01:05:06;;;;;;;5.72;5.25;;;;;;;18.49;57.38;98816.00;2621093;46;20087;-62
2022/05/11 01:07:38;;;;;;;5.35;4.95;;;;;;;18.44;56.86;98805.19;2619899;54;20027;-64
2022/05/11 01:10:11;;;;;;;5.82;5.20;;;;;;;18.50;56.91;98806.09;2622027;54;20039;-64
2022/05/11 01:12:54;;;;;;;6.25;5.00;;;;;;;18.51;56.68;98808.50;2622427;54;20035;-66
2022/05/11 01:15:25;;;;;;;6.30;5.60;;;;;;;18.52;57.28;98806.63;2623005;47;20030;-63
2022/05/11 01:17:55;;;;;;;5.28;4.78;;;;;;;18.46;57.31;98810.31;2621328;54;20152;-64
2022/05/11 01:20:27;;;;;;;6.13;5.50;;;;;;;18.42;57.34;98809.97;2618892;54;20049;-64
2022/05/11 01:23:08;;;;;;;6.15;5.07;;;;;;;18.44;56.90;98807.84;2618821;54;20038;-63
2022/05/11 01:25:40;;;;;;;7.03;4.97;;;;;;;18.41;56.97;98802.19;2619232;46;20077;-64
2022/05/11 01:28:13;;;;;;;6.00;5.45;;;;;;;18.42;57.12;98803.81;2619567;54;20130;-62
2022/05/11 01:30:44;;;;;;;6.43;5.47;;;;;;;18.37;57.53;98806.38;2620228;47;20085;-64
2022/05/11 01:33:18;;;;;;;5.80;5.20;;;;;;;18.34;57.61;98801.56;2619153;54;20542;-64
2022/05/11 01:35:52;;;;;;;;;;;;;;;18.31;57.21;98800.16;2619301;46;20038;-64
2022/05/11 01:38:33;;;;;;;5.38;4.97;;;;;;;18.31;57.45;98806.31;2619623;54;19938;-64
2022/05/11 01:41:06;;;;;;;5.88;5.00;;;;;;;18.30;57.78;98799.34;2620294;54;20042;-64
2022/05/11 01:43:40;;;;;;;5.30;4.70;;;;;;;18.27;57.31;98802.50;2621146;54;20061;-63
2022/05/11 01:46:11;;;;;;;5.75;5.25;;;;;;;18.26;57.85;98798.22;2622653;54;20126;-63
2022/05/11 01:48:40;;;;;;;6.78;5.40;;;;;;;18.25;57.76;98793.91;2621898;54;20138;-63
2022/05/11 01:51:10;;;;;;;5.93;5.32;;;;;;;18.24;57.85;98794.16;2619783;47;20129;-62
2022/05/11 01:53:40;;;;;;;5.75;5.15;;;;;;;18.23;57.82;98785.31;2620018;54;20053;-62
2022/05/11 01:56:12;;;;;;;5.70;5.20;;;;;;;18.20;57.58;98795.69;2620331;54;20042;-62
2022/05/11 01:58:42;;;;;;;6.07;5.57;;;;;;;18.18;57.96;98795.13;2621644;54;20027;-62
2022/05/11 02:01:12;;;;;;;5.55;5.07;;;;;;;18.16;58.00;98791.88;2620208;54;20138;-60
2022/05/11 02:03:41;;;;;;;5.10;4.68;;;;;;;18.14;58.08;98796.66;2621520;54;20569;-62
2022/05/11 02:08:53;;;;;;;6.22;5.45;;;;;;;18.10;58.18;98787.50;2622843;54;20731;-64
2022/05/11 02:11:26;;;;;;;6.43;5.30;;;;;;;18.09;57.88;98788.56;2622002;54;20037;-61
2022/05/11 02:13:57;;;;;;;5.57;4.85;;;;;;;18.06;58.21;98792.53;2623492;39;20442;-64
2022/05/11 02:16:28;;;;;;;7.10;5.55;;;;;;;18.06;58.32;98796.00;2622584;54;20495;-60
2022/05/11 02:18:58;;;;;;;6.13;5.15;;;;;;;18.06;58.19;98798.69;2620495;54;20031;-63
2022/05/11 02:21:28;;;;;;;5.72;5.22;;;;;;;18.04;58.14;98791.94;2620460;54;20037;-60
2022/05/11 02:23:57;;;;;;;7.68;5.63;;;;;;;18.02;57.91;98791.38;2619851;47;20027;-61
2022/05/11 02:26:30;;;;;;;7.28;5.18;;;;;;;18.04;57.97;98792.78;2620024;54;20030;-61
2022/05/11 02:29:00;;;;;;;6.05;5.45;;;;;;;18.02;58.06;98789.50;2619357;47;20034;-61
2022/05/11 02:31:29;;;;;;;5.40;4.93;;;;;;;17.94;58.09;98789.91;2619725;47;20022;-60
2022/05/11 02:34:02;;;;;;;6.63;6.00;;;;;;;17.95;58.11;98785.34;2619883;54;20026;-61
2022/05/11 02:36:32;;;;;;;5.40;5.00;;;;;;;17.93;58.46;98796.31;2619461;54;20030;-61
2022/05/11 02:39:02;;;;;;;5.97;5.38;;;;;;;17.93;58.52;98790.97;2620120;47;20026;-61
2022/05/11 02:41:34;;;;;;;5.60;5.20;;;;;;;17.90;58.37;98793.31;2620288;54;20037;-61
2022/05/11 02:44:03;;;;;;;6.38;5.50;;;;;;;17.83;58.56;98798.78;2620612;47;20034;-63
2022/05/11 02:46:33;;;;;;;6.80;5.32;;;;;;;17.80;58.36;98789.41;2620949;54;20039;-63
2022/05/11 02:49:03;;;;;;;6.13;5.60;;;;;;;17.86;58.29;98789.47;2620929;54;20558;-63
2022/05/11 02:51:33;;;;;;;6.43;5.80;;;;;;;17.85;58.71;98787.88;2621000;54;20056;-61
2022/05/11 02:54:02;;;;;;;6.93;5.47;;;;;;;17.89;58.26;98794.34;2621060;54;20085;-63
2022/05/11 02:56:34;;;;;;;6.20;5.60;;;;;;;17.85;58.21;98791.34;2621184;54;20026;-63
2022/05/11 02:59:04;;;;;;;8.48;5.70;;;;;;;17.83;58.75;98791.56;2620877;54;20119;-63
2022/05/11 03:01:34;;;;;;;6.07;5.53;;;;;;;17.78;58.41;98786.13;2620939;54;20035;-63
2022/05/11 03:04:04;;;;;;;6.35;5.75;;;;;;;17.80;58.49;98780.56;2620838;54;20051;-63
2022/05/11 03:06:33;;;;;;;6.68;5.70;;;;;;;17.76;58.73;98784.78;2620821;54;20035;-63
2022/05/11 03:09:03;;;;;;;5.93;5.30;;;;;;;17.75;58.93;98775.91;2620673;54;20030;-64
2022/05/11 03:11:36;;;;;;;8.50;6.45;;;;;;;17.74;59.09;98779.66;2622799;39;20406;-61
2022/05/11 03:14:06;;;;;;;7.55;5.97;;;;;;;17.71;58.99;98777.41;2620367;54;20160;-62
2022/05/11 03:16:35;;;;;;;7.43;6.10;;;;;;;17.69;58.88;98781.41;2620226;54;20069;-63
2022/05/11 03:19:05;;;;;;;6.10;5.38;;;;;;;17.67;59.21;98784.28;2620471;39;20631;-61
2022/05/11 03:21:36;;;;;;;7.90;5.47;;;;;;;17.62;58.69;98778.03;2620175;54;20026;-62
2022/05/11 03:24:06;;;;;;;6.18;5.57;;;;;;;17.59;58.97;98765.97;2621702;54;20041;-63
2022/05/11 03:26:38;;;;;;;6.40;5.60;;;;;;;17.60;59.37;98764.13;2620450;54;20042;-63
2022/05/11 03:29:08;;;;;;;6.13;5.47;;;;;;;17.61;59.32;98777.25;2620001;54;20034;-63
2022/05/11 03:31:39;;;;;;;7.05;5.95;;;;;;;17.65;58.95;98766.88;2619967;54;20038;-62
2022/05/11 03:36:52;;;;;;;6.20;5.68;;;;;;;17.58;59.12;98761.66;2619786;54;20034;-65
2022/05/11 03:39:22;;;;;;;6.60;6.00;;;;;;;17.60;59.30;98764.94;2620328;54;20034;-61
2022/05/11 03:41:54;;;;;;;10.35;5.65;;;;;;;17.57;59.13;98768.88;2619900;54;20027;-61
2022/05/11 03:44:24;;;;;;;6.97;5.60;;;;;;;17.53;58.96;98767.75;2619827;54;20030;-61
2022/05/11 03:46:53;;;;;;;6.82;6.20;;;;;;;17.44;59.71;98769.16;2619497;54;20041;-62
2022/05/11 03:49:23;;;;;;;7.63;5.63;;;;;;;17.40;59.73;98767.22;2619636;54;20149;-63
2022/05/11 03:51:54;;;;;;;6.20;5.70;;;;;;;17.36;59.58;98766.06;2622161;39;20379;-62
2022/05/11 03:54:23;;;;;;;6.47;5.82;;;;;;;17.33;59.65;98770.81;2623446;54;20033;-62
2022/05/11 03:56:55;;;;;;;6.70;5.80;;;;;;;17.33;59.70;98770.81;2621155;54;20035;-61
2022/05/11 03:59:25;;;;;;;7.38;5.63;;;;;;;17.33;59.65;98768.16;2620687;39;20424;-62
2022/05/11 04:01:55;;;;;;;6.07;5.43;;;;;;;17.33;59.60;98770.00;2620579;54;20046;-62
2022/05/11 04:04:24;;;;;;;6.85;5.60;;;;;;;17.34;59.88;98761.75;2620696;54;20039;-61
2022/05/11 04:06:54;;;;;;;7.22;5.75;;;;;;;17.40;59.06;98761.88;2623253;54;20030;-63
2022/05/11 04:09:24;;;;;;;6.22;5.43;;;;;;;17.42;59.31;98757.09;2622909;47;20033;-63
2022/05/11 04:11:57;;;;;;;6.18;5.57;;;;;;;17.48;59.07;98762.31;2621041;54;20046;-64
2022/05/11 04:14:26;;;;;;;6.32;5.70;;;;;;;17.54;59.12;98758.66;2621135;54;20029;-62
2022/05/11 04:16:59;;;;;;;5.60;5.10;;;;;;;17.60;58.78;98758.78;2619968;54;20038;-64
2022/05/11 04:19:29;;;;;;;6.50;6.00;;;;;;;17.60;58.97;98761.44;2620231;54;20026;-62
2022/05/11 04:21:59;;;;;;;7.75;6.97;;;;;;;17.61;58.94;98760.41;2619136;54;20023;-62
2022/05/11 04:24:28;;;;;;;8.88;7.00;;;;;;;17.61;58.82;98757.72;2622150;39;20426;-63
2022/05/11 04:27:01;;;;;;;6.30;5.72;;;;;;;17.54;59.11;98752.50;2620513;54;20030;-62
2022/05/11 04:29:30;;;;;;;9.38;6.90;;;;;;;17.54;58.67;98755.19;2620519;54;20033;-63
2022/05/11 04:32:00;;;;;;;6.25;5.65;;;;;;;17.60;58.61;98756.09;2620107;54;20061;-62
2022/05/11 04:34:30;;;;;;;10.05;7.25;;;;;;;17.62;58.53;98756.66;2619967;54;20099;-63
2022/05/11 04:36:59;;;;;;;7.20;6.50;;;;;;;17.61;58.44;98752.38;2620118;54;20039;-62
2022/05/11 04:39:30;;;;;;;8.93;7.45;;;;;;;17.58;58.63;98756.31;2622074;54;20030;-63
2022/05/11 04:42:02;;;;;;;8.55;7.68;;;;;;;17.57;58.96;98755.50;2618369;54;20038;-64
2022/05/11 04:44:32;;;;;;;7.93;7.07;;;;;;;17.60;58.94;98754.25;2618231;54;20038;-62
2022/05/11 04:47:05;;;;;;;11.35;7.18;;;;;;;17.62;58.55;98751.31;2619900;54;20597;-64
2022/05/11 04:49:35;;;;;;;6.70;5.95;;;;;;;17.68;58.79;98751.19;2619777;54;20038;-63
2022/05/11 04:52:08;;;;;;;6.50;5.90;;;;;;;17.75;58.02;98748.38;2620418;54;20045;-63
2022/05/11 04:54:39;;;;;;;7.75;6.95;;;;;;;17.77;57.76;98752.44;2621191;54;20034;-62
2022/05/11 04:57:12;;;;;;;6.88;6.18;;;;;;;17.87;57.81;98759.00;2619841;54;20042;-63
2022/05/11 04:59:42;;;;;;;6.13;5.07;;;;;;;17.87;57.58;98757.13;2620431;39;20439;-63
2022/05/11 05:02:16;;;;;;;6.22;5.30;;;;;;;17.93;57.42;98756.19;2619362;54;20034;-63
2022/05/11 05:04:46;;;;;;;5.97;5.47;;;;;;;18.00;57.00;98756.03;2618732;54;20046;-64
2022/05/11 05:07:16;;;;;;;9.82;5.95;;;;;;;18.07;57.34;98762.03;2618741;54;20551;-63
2022/05/11 05:09:46;;;;;;;5.70;5.20;;;;;;;18.12;56.70;98764.78;2618742;54;20030;-63
2022/05/11 05:12:18;;;;;;;6.45;5.88;;;;;;;18.18;56.61;98755.81;2618306;47;20027;-64
2022/05/11 05:14:48;;;;;;;5.60;4.88;;;;;;;18.22;56.57;98762.28;2619192;54;20037;-65
2022/05/11 05:17:18;;;;;;;8.63;6.22;;;;;;;18.32;56.40;98762.44;2620789;54;20026;-64
2022/05/11 05:19:49;;;;;;;6.18;5.60;;;;;;;18.46;56.08;98767.47;2620918;54;20030;-63
2022/05/11 05:22:19;;;;;;;7.75;5.55;;;;;;;18.56;55.76;98768.44;2620898;54;20042;-64
2022/05/11 05:24:48;;;;;;;6.28;5.68;;;;;;;18.64;55.40;98766.41;2620802;54;20027;-64
2022/05/11 05:27:22;;;;;;;6.10;5.60;;;;;;;18.68;55.67;98764.84;2620050;47;20030;-63
2022/05/11 05:32:38;;;;;;;6.70;5.68;;;;;;;18.74;55.50;98772.75;2620534;54;20027;-62
2022/05/11 05:35:09;;;;;;;6.30;5.15;;;;;;;18.76;55.38;98767.94;2620255;39;20406;-62
2022/05/11 05:37:40;;;;;;;6.47;5.88;;;;;;;18.74;55.20;98769.28;2620768;39;20406;-63
2022/05/11 05:40:11;;;;;;;10.55;7.03;;;;;;;18.80;55.14;98769.06;2621531;54;20046;-61
2022/05/11 05:42:44;;;;;;;7.10;5.45;;;;;;;18.84;54.87;98769.41;2623095;54;20081;-63
2022/05/11 05:45:14;;;;;;;10.65;9.55;;;;;;;18.87;54.90;98774.28;2621631;54;20038;-63
2022/05/11 05:47:44;;;;;;;6.85;6.07;;;;;;;18.90;55.30;98765.75;2620135;39;20458;-62
2022/05/11 05:50:13;;;;;;;7.22;6.07;;;;;;;18.96;54.69;98771.97;2619095;54;20044;-61
2022/05/11 05:52:47;;;;;;;6.47;5.53;;;;;;;19.01;55.22;98769.34;2619876;54;20037;-61
2022/05/11 05:55:19;;;;;;;7.65;4.93;;;;;;;19.09;54.57;98774.28;2620014;54;20034;-62
2022/05/11 05:57:51;;;;;;;6.77;5.80;;;;;;;19.18;54.87;98778.13;2619057;54;20031;-62
2022/05/11 06:00:27;;;;;;;5.63;5.10;;;;;;;19.25;54.72;98770.72;2621294;47;20370;-63
2022/05/11 06:02:57;;;;;;;7.07;5.22;;;;;;;19.30;54.34;98767.28;2623329;39;20490;-64
2022/05/11 06:05:28;;;;;;;7.50;5.68;;;;;;;19.37;54.24;98772.47;2623491;39;20564;-63
2022/05/11 06:07:58;;;;;;;5.88;5.38;;;;;;;19.42;54.53;98772.53;2622922;54;20621;-63
2022/05/11 06:10:28;;;;;;;6.13;5.32;;;;;;;19.47;54.25;98764.53;2622137;54;20030;-63
2022/05/11 06:13:00;;;;;;;5.68;5.18;;;;;;;19.57;54.29;98769.22;2623132;39;20416;-63
2022/05/11 06:15:30;;;;;;;5.53;4.95;;;;;;;19.60;54.36;98769.53;2621611;54;20030;-61
2022/05/11 06:18:00;;;;;;;6.22;5.47;;;;;;;19.62;53.82;98767.41;2619753;54;20052;-63
2022/05/11 06:20:29;;;;;;;7.10;6.18;;;;;;;19.73;54.06;98757.63;2619898;54;20557;-62
2022/05/11 06:22:59;;;;;;;7.57;5.65;;;;;;;19.80;53.75;98766.28;2618941;54;20038;-63
2022/05/11 06:25:28;;;;;;;14.95;5.93;;;;;;;19.93;53.85;98762.38;2620029;54;20593;-62
2022/05/11 06:28:01;;;;;;;6.35;5.18;;;;;;;20.07;53.38;98757.38;2621097;54;20561;-63
2022/05/11 06:30:31;;;;;;;6.95;5.28;;;;;;;20.18;53.08;98765.28;2622658;54;20045;-62
2022/05/11 06:33:01;;;;;;;5.72;5.22;;;;;;;20.32;52.63;98757.59;2622992;39;20426;-65
2022/05/11 06:35:31;;;;;;;7.88;5.63;;;;;;;20.38;52.68;98753.09;2621949;47;20142;-63
2022/05/11 06:38:04;;;;;;;5.25;4.85;;;;;;;20.39;52.47;98757.38;2622274;54;20038;-63
2022/05/11 06:40:34;;;;;;;5.88;5.28;;;;;;;20.46;52.34;98755.28;2622476;54;20519;-63
2022/05/11 06:43:08;;;;;;;5.50;5.00;;;;;;;20.55;52.69;98751.09;2621385;54;20030;-63
2022/05/11 06:45:37;;;;;;;6.00;5.40;;;;;;;20.60;52.14;98755.69;2621404;54;20038;-63
2022/05/11 06:48:08;;;;;;;7.03;5.28;;;;;;;20.63;51.79;98755.16;2622513;47;20034;-64
2022/05/11 06:50:38;;;;;;;13.77;4.85;;;;;;;20.66;51.83;98750.09;2623013;54;20046;-64
2022/05/11 06:53:12;;;;;;;5.70;5.20;;;;;;;20.80;51.72;98746.94;2619896;54;20045;-64
2022/05/11 07:01:10;;;;;;;5.93;5.28;;;;;;;21.11;51.60;98745.22;2617905;47;20037;-65
2022/05/11 07:03:39;;;;;;;5.75;5.07;;;;;;;21.22;51.50;98744.97;2617611;54;20053;-62
2022/05/11 07:06:09;;;;;;;6.05;5.22;;;;;;;21.36;51.27;98739.16;2618401;54;20550;-62
2022/05/11 07:08:41;;;;;;;5.97;5.47;;;;;;;21.42;50.59;98736.19;2618414;54;20038;-62
2022/05/11 07:13:56;;;;;;;6.18;4.72;;;;;;;21.46;49.05;98741.84;2618915;54;20041;-62
2022/05/11 07:16:27;;;;;;;5.32;4.93;;;;;;;21.52;49.25;98738.13;2624190;54;20093;-62
2022/05/11 07:18:57;;;;;;;5.68;4.63;;;;;;;21.56;48.92;98728.44;2623917;54;20023;-62
2022/05/11 07:21:27;;;;;;;5.32;4.93;;;;;;;21.68;49.19;98734.38;2627537;39;20449;-63
2022/05/11 07:23:56;;;;;;;5.20;4.63;;;;;;;21.77;48.89;98722.00;2620400;54;20561;-63
2022/05/11 07:26:27;;;;;;;6.78;4.88;;;;;;;21.84;48.33;98735.22;2621626;54;20042;-63
2022/05/11 07:28:59;;;;;;;4.78;4.32;;;;;;;21.95;48.15;98722.56;2620848;47;20035;-63
2022/05/11 07:31:29;;;;;;;4.93;4.18;;;;;;;22.01;47.94;98730.38;2618812;54;20046;-63
2022/05/11 07:33:58;;;;;;;6.30;4.50;;;;;;;22.03;47.37;98727.41;2618939;54;20026;-62
2022/05/11 07:36:28;;;;;;;5.07;4.47;;;;;;;22.10;47.49;98727.16;2621151;54;20025;-66
2022/05/11 07:38:58;;;;;;;5.85;4.30;;;;;;;22.17;47.63;98730.41;2620361;54;20031;-63
2022/05/11 07:41:27;;;;;;;9.27;4.90;;;;;;;22.34;47.04;98717.47;2621303;54;20042;-63
2022/05/11 07:44:00;;;;;;;6.90;5.20;;;;;;;22.36;47.13;98723.38;2618781;54;20038;-64
2022/05/11 07:46:34;;;;;;;5.47;4.37;;;;;;;22.40;46.10;98719.06;2618395;54;20065;-63
2022/05/11 07:49:04;;;;;;;5.30;3.85;;;;;;;22.40;46.33;98724.44;2617367;47;20027;-63
2022/05/11 07:51:35;;;;;;;5.03;4.07;;;;;;;22.45;46.50;98724.47;2618927;39;20550;-63
2022/05/11 07:54:05;;;;;;;5.07;4.25;;;;;;;22.58;46.24;98712.31;2618268;54;20038;-62
2022/05/11 08:02:02;;;;;;;5.10;4.30;;;;;;;22.74;45.44;98713.09;2618033;54;20039;-63
2022/05/11 08:04:32;;;;;;;15.38;4.78;;;;;;;22.82;45.59;98715.22;2617792;54;20027;-63
2022/05/11 08:07:02;;;;;;;5.75;4.25;;;;;;;22.90;45.65;98711.13;2617595;54;20038;-66
2022/05/11 08:09:32;;;;;;;8.00;4.85;;;;;;;23.00;45.51;98705.72;2617991;54;20134;-64
2022/05/11 08:12:01;;;;;;;7.25;4.40;;;;;;;23.15;45.03;98694.09;2617149;54;20034;-61
2022/05/11 08:14:33;;;;;;;7.78;4.15;;;;;;;23.24;44.85;98706.69;2618526;39;20468;-62
2022/05/11 08:17:03;;;;;;;7.55;4.00;;;;;;;23.29;44.09;98708.56;2618049;54;20027;-62
2022/05/11 08:19:33;;;;;;;11.25;3.70;;;;;;;23.36;44.47;98697.47;2618057;54;20042;-63
2022/05/11 08:22:02;;;;;;;4.45;3.78;;;;;;;23.53;43.86;98702.50;2617879;54;20042;-65
2022/05/11 08:24:32;;;;;;;3.88;3.45;;;;;;;23.59;42.80;98704.06;2617729;54;20623;-61
2022/05/11 08:27:02;;;;;;;4.82;3.95;;;;;;;23.55;42.50;98706.50;2617356;54;20031;-62
2022/05/11 08:34:58;;;;;;;6.28;3.63;;;;;;;23.70;42.84;98694.84;2620033;39;20486;-65
2022/05/11 08:37:28;;;;;;;8.68;3.75;;;;;;;23.78;42.32;98696.94;2619462;54;20037;-62
2022/05/11 08:39:58;;;;;;;4.60;3.80;;;;;;;23.85;42.02;98685.84;2618611;54;20041;-63
2022/05/11 08:42:33;;;;;;;3.53;3.22;;;;;;;23.95;42.25;98691.94;2619032;54;20558;-63
2022/05/11 08:45:06;;;;;;;6.30;3.63;;;;;;;23.97;41.39;98686.28;2619028;54;20081;-63
2022/05/11 08:47:48;;;;;;;3.80;3.40;;;;;;;24.06;41.43;98689.97;2618402;54;20038;-63
2022/05/11 08:50:21;;;;;;;4.25;3.38;;;;;;;24.18;41.19;98695.81;2619027;54;20026;-63
2022/05/11 08:52:54;;;;;;;;;;;;;;;24.21;40.60;98683.66;2619409;54;20042;-63
2022/05/11 08:55:37;;;;;;;5.93;3.63;;;;;;;24.31;40.94;98690.84;2619920;54;20431;-64
2022/05/11 08:58:11;;;;;;;5.03;3.83;;;;;;;24.29;40.57;98693.81;2619333;54;20045;-63
2022/05/11 09:00:45;;;;;;;6.25;3.50;;;;;;;24.32;40.42;98682.44;2620672;39;20497;-63
2022/05/11 09:03:26;;;;;;;3.60;3.30;;;;;;;24.39;40.25;98674.03;2619811;54;20033;-63
2022/05/11 09:05:57;;;;;;;6.15;3.42;;;;;;;24.48;39.76;98677.72;2619738;47;20027;-63
2022/05/11 09:08:28;;;;;;;5.93;3.78;;;;;;;24.52;39.30;98681.44;2619462;54;20026;-63
2022/05/11 09:10:58;;;;;;;6.18;3.58;;;;;;;24.45;40.02;98673.69;2620285;54;20038;-64
2022/05/11 09:13:28;;;;;;;4.57;3.20;;;;;;;24.49;40.29;98673.91;2620503;54;20039;-63
2022/05/11 09:16:05;;;;;;;4.22;3.55;;;;;;;24.64;40.36;98664.84;2618684;54;20039;-63
2022/05/11 09:18:39;;;;;;;5.95;3.60;;;;;;;24.79;40.29;98675.47;2617972;54;20056;-63
2022/05/11 09:21:24;;;;;;;11.18;4.03;;;;;;;24.91;39.99;98665.06;2618626;39;20467;-64
2022/05/11 09:24:08;;;;;;;5.65;3.58;;;;;;;25.04;40.26;98674.34;2618913;54;20050;-65
2022/05/11 09:26:40;;;;;;;7.13;3.60;;;;;;;25.07;39.40;98673.78;2618584;54;20037;-63
2022/05/11 09:29:19;;;;;;;5.73;3.63;;;;;;;25.15;39.65;98666.97;2621120;54;20034;-63
2022/05/11 09:31:54;;;;;;;6.07;3.17;;;;;;;25.22;39.22;98666.56;2621197;54;20282;-63
2022/05/11 09:34:29;;;;;;;4.40;3.40;;;;;;;25.29;38.25;98658.91;2620462;54;20026;-62
2022/05/11 09:37:02;;;;;;;4.82;3.30;;;;;;;25.27;38.42;98658.38;2620601;54;20539;-65
2022/05/11 09:39:34;;;;;;;10.70;3.83;;;;;;;25.29;39.08;98661.63;2620525;54;20554;-63
2022/05/11 09:42:16;;;;;;;6.47;3.15;;;;;;;25.44;38.97;98656.78;2624234;54;20037;-63
2022/05/11 09:44:49;;;;;;;4.53;3.13;;;;;;;25.50;39.01;98651.28;2620860;54;20033;-64
2022/05/11 09:47:31;;;;;;;6.22;3.38;;;;;;;25.55;38.08;98646.59;2620177;54;20038;-63
2022/05/11 09:50:21;;;;;;;16.27;3.53;;;;;;;25.65;38.47;98640.22;2619833;54;20098;-63
2022/05/11 09:52:51;;;;;;;3.70;3.10;;;;;;;25.61;37.38;98642.72;2619442;39;20442;-62
2022/05/11 09:55:28;;;;;;;3.97;3.13;;;;;;;25.64;38.07;98642.13;2618444;54;20035;-63
2022/05/11 09:58:01;;;;;;;4.80;2.97;;;;;;;25.78;37.12;98646.81;2618097;54;20030;-63
2022/05/11 10:00:36;;;;;;;4.97;3.03;;;;;;;25.84;37.34;98643.75;2618365;54;20129;-62
2022/05/11 10:03:13;;;;;;;6.70;3.20;;;;;;;25.81;36.87;98635.41;2618249;54;20294;-62
2022/05/11 10:05:45;;;;;;;7.50;3.13;;;;;;;25.91;36.63;98646.84;2618181;54;20034;-62
2022/05/11 10:08:26;;;;;;;3.92;3.10;;;;;;;25.90;36.37;98636.31;2619946;54;20069;-63
2022/05/11 10:10:59;;;;;;;7.30;3.10;;;;;;;25.99;37.26;98631.03;2620890;54;20061;-64
2022/05/11 10:13:33;;;;;;;4.60;2.97;;;;;;;26.12;36.82;98620.22;2621029;54;20030;-63
2022/05/11 10:21:56;;;;;;;3.78;3.22;;;;;;;26.19;35.98;98631.47;2617132;54;20042;-65
2022/05/11 10:24:38;;;;;;;4.60;3.10;;;;;;;26.16;35.46;98632.06;2618147;54;20150;-64
2022/05/11 10:27:15;;;;;;;4.22;3.17;;;;;;;26.06;35.39;98615.19;2618044;54;20034;-64
2022/05/11 10:30:08;;;;;;;6.88;3.30;;;;;;;26.10;35.42;98611.59;2617456;54;20029;-65
2022/05/11 10:33:09;;;;;;;4.85;2.80;;;;;;;26.17;34.86;98586.81;2618865;31;20508;-65
2022/05/11 10:35:57;;;;;;;3.25;3.00;;;;;;;26.29;35.33;98602.56;2617954;39;20414;-65
2022/05/11 10:38:38;;;;;;;4.35;3.00;;;;;;;26.46;35.66;98604.72;2618688;39;20423;-64
2022/05/11 10:41:19;;;;;;;4.43;2.78;;;;;;;26.48;33.83;98600.59;2617987;54;20035;-64
2022/05/11 10:44:01;;;;;;;3.60;3.00;;;;;;;26.48;34.11;98603.31;2617945;54;20109;-64
2022/05/11 10:46:37;;;;;;;3.88;3.13;;;;;;;26.54;33.54;98599.41;2617911;54;20034;-66
2022/05/11 10:49:32;;;;;;;2.85;2.65;;;;;;;26.56;33.25;98602.59;2617496;54;20173;-63
2022/05/11 10:52:36;;;;;;;4.25;2.78;;;;;;;26.55;33.42;98603.72;2617689;54;20046;-65
2022/05/11 10:55:18;;;;;;;8.50;2.85;;;;;;;26.67;32.90;98595.06;2618181;54;20026;-63
2022/05/11 10:57:57;;;;;;;4.78;3.67;;;;;;;26.76;32.79;98601.38;2617069;54;20031;-63
2022/05/11 11:00:35;;;;;;;4.43;2.65;;;;;;;26.81;32.24;98584.19;2617681;54;20041;-62
2022/05/11 11:03:48;;;;;;;4.28;2.85;;;;;;;26.85;32.46;98590.63;2617198;54;20037;-64
2022/05/11 11:09:39;;;;;;;5.85;2.83;;;;;;;26.89;32.19;98586.19;2617695;54;20053;-62
2022/05/11 11:12:31;;;;;;;2.83;2.50;;;;;;;26.93;31.95;98579.84;2617824;54;20031;-63
2022/05/11 11:15:06;;;;;;;4.22;2.60;;;;;;;27.00;32.02;98584.06;2617667;54;20668;-63
2022/05/11 11:17:36;;;;;;;5.55;2.75;;;;;;;27.01;32.80;98575.59;2617527;54;20042;-64
2022/05/11 11:20:09;;;;;;;3.55;2.60;;;;;;;27.11;32.93;98585.47;2617993;47;20034;-65
2022/05/11 11:23:18;;;;;;;4.50;2.92;;;;;;;27.10;31.44;98589.28;2616988;47;20030;-66
2022/05/11 11:25:56;;;;;;;3.10;2.80;;;;;;;27.01;30.72;98581.03;2617277;54;20039;-64
2022/05/11 11:28:27;;;;;;;5.63;2.60;;;;;;;26.93;31.34;98577.13;2617501;54;20041;-65
2022/05/11 11:31:16;;;;;;;6.35;2.85;;;;;;;27.00;31.41;98589.47;2617643;54;20027;-65
2022/05/11 11:34:20;;;;;;;3.13;2.67;;;;;;;26.98;30.92;98559.94;2617549;54;20034;-65
2022/05/11 11:36:49;;;;;;;;;;;;;;;27.10;30.86;98556.72;2617856;54;20042;-61
2022/05/11 11:39:52;;;;;;;5.72;2.53;;;;;;;27.21;31.22;98557.28;2617733;54;19946;-66
2022/05/11 11:42:37;;;;;;;5.68;2.80;;;;;;;27.19;31.24;98549.47;2621911;54;20039;-65
2022/05/11 11:45:10;;;;;;;4.30;2.60;;;;;;;27.31;30.69;98560.56;2623496;54;20039;-64
2022/05/11 11:47:45;;;;;;;4.22;2.70;;;;;;;27.29;31.00;98548.41;2623663;47;20046;-65
2022/05/11 11:50:49;;;;;;;3.10;2.40;;;;;;;27.42;31.95;98559.19;2617770;54;20058;-64
2022/05/11 11:53:31;;;;;;;3.35;2.67;;;;;;;27.31;31.28;98541.56;2617524;54;20061;-65
2022/05/11 11:56:30;;;;;;;5.07;2.97;;;;;;;27.42;31.39;98551.03;2617700;54;20038;-65
2022/05/11 11:59:05;;;;;;;3.83;2.78;;;;;;;27.44;30.83;98539.91;2617827;46;20157;-70
2022/05/11 12:01:37;;;;;;;6.35;2.60;;;;;;;27.47;30.82;98547.41;2624002;54;20038;-63
2022/05/11 12:04:20;;;;;;;7.05;3.13;;;;;;;27.69;30.80;98540.38;2628147;39;20407;-65
2022/05/11 12:15:21;;;;;;;2.77;2.57;;;;;;;27.57;31.27;98543.66;2619366;54;20633;-64
2022/05/11 12:17:50;;;;;;;3.58;2.83;;;;;;;27.58;30.39;98510.75;2618436;47;20027;-63
2022/05/11 12:20:23;;;;;;;15.88;2.80;;;;;;;27.75;29.08;98529.06;2619511;54;20034;-65
2022/05/11 12:22:58;;;;;;;7.25;2.90;;;;;;;27.83;29.01;98517.44;2619734;54;20638;-65
2022/05/11 12:25:31;;;;;;;3.38;2.60;;;;;;;27.78;29.02;98524.94;2619781;54;20034;-64
2022/05/11 12:28:03;;;;;;;3.15;2.50;;;;;;;27.81;29.44;98527.03;2619577;54;20043;-62
2022/05/11 12:30:42;;;;;;;2.85;2.65;;;;;;;27.84;29.21;98508.19;2617484;54;20034;-65
2022/05/11 12:33:22;;;;;;;4.78;2.80;;;;;;;27.91;28.37;98518.59;2617456;54;20030;-63
2022/05/11 12:35:53;;;;;;;3.20;2.53;;;;;;;27.89;28.27;98502.63;2617520;54;20030;-64
2022/05/11 12:38:33;;;;;;;7.13;2.97;;;;;;;28.00;28.93;98514.00;2617837;39;20454;-63
2022/05/11 12:41:15;;;;;;;3.92;3.00;;;;;;;28.12;28.58;98502.53;2618019;54;20030;-64
2022/05/11 12:43:56;;;;;;;13.27;3.70;;;;;;;28.29;27.69;98499.06;2619097;54;20030;-64
2022/05/11 12:46:27;;;;;;;8.20;3.35;;;;;;;28.34;28.00;98486.13;2617410;54;20045;-65
2022/05/11 12:48:59;;;;;;;5.10;2.80;;;;;;;28.36;27.55;98496.72;2617852;39;20552;-65